Wind from: 23-10-2017 23:00 until: 24-10-2017 22:59 warning for: Wind level: Yellow info button

Nearby METAR Reports

 

ENZV - Stavanger
Actualización: 23/10/2017 22:20
Muy nuboso
Muy nuboso
 Viento del ESE
Viento: ESE 33 km/h, Racha: 52 km/h
Temperatura: 9°C
Wind Chill: 5°C
Rocío: 1°C
Humedad: 58%
Barómetro: 1016 hPa
Clouds: Muy nuboso
Visibility: 10 km
2017/10/23 20:20 ENZV 232020Z 12018G28KT 9999 FEW040 BKN055 09/01 Q1016
ENBR - Bergen
Actualización: 23/10/2017 22:20
Light rain, mostly cloudy
Light rain, mostly cloudy
 Viento del SE
Viento: SE 20 km/h
Temperatura: 9°C
Wind Chill: 6°C
Rocío: 1°C
Humedad: 58%
Barómetro: 1015 hPa
Resumen: Lluvia débil
Clouds: Muy nuboso
Visibility: 10 km
2017/10/23 20:20 ENBR 232020Z 13011KT 9999 -RA BKN045 09/01 Q1015 RMK WIND 1200FT 13029KT
 
ENHD - Haugesund
Actualización: 23/10/2017 22:20
Muy nuboso
Muy nuboso
 Viento del ESE
Viento: ESE 44 km/h
Temperatura: 10°C
Wind Chill: 6°C
Rocío: 2°C
Humedad: 58%
Barómetro: 1015 hPa
Clouds: Muy nuboso
Visibility: 10 km
2017/10/23 20:20 ENHD 232020Z 12024KT 9999 BKN048 10/02 Q1015
ENCN - Kristiansand
Actualización: 23/10/2017 22:20
Light rain, mostly cloudy
Light rain, mostly cloudy
 Viento del NE
Viento: NE 17 km/h
Temperatura: 6°C
Wind Chill: 3°C
Rocío: 5°C
Humedad: 93%
Barómetro: 1021 hPa
Resumen: Lluvia débil
Clouds: Muy nuboso
Visibility: 10 km
2017/10/23 20:20 ENCN 232020Z 05009KT 9999 -RA BKN007 06/05 Q1021
 
ENBO - Bodø
Actualización: 23/10/2017 22:20
Despejado
Despejado
 Viento del E
Viento: E 22 km/h
Temperatura: 2°C
Wind Chill: -3°C
Rocío: -5°C
Humedad: 60%
Barómetro: 1024 hPa
Resumen: Despejado
Visibility: greater than 10 km
2017/10/23 20:20 ENBO 232020Z 08012KT CAVOK 02/M05 Q1024 NOSIG
ENKR - Kirkenes
Actualización: 23/10/2017 22:20
Despejado
Despejado
 Viento del SO
Viento: SO 11 km/h
Temperatura: -3°C
Wind Chill: -7°C
Rocío: -6°C
Humedad: 80%
Barómetro: 1026 hPa
Resumen: Despejado
Visibility: greater than 10 km
2017/10/23 20:20 ENKR 232020Z 22006KT 190V270 CAVOK M03/M06 Q1026 RMK WIND 731FT 24019KT
 
ENVA - Trondheim
Actualización: 23/10/2017 22:20
Despejado
Despejado
 Viento del SSE
Viento: SSE 24 km/h, Racha: 46 km/h
Temperatura: 6°C
Wind Chill: 2°C
Rocío: -4°C
Humedad: 49%
Barómetro: 1021 hPa
Resumen: Despejado
Visibility: greater than 10 km
2017/10/23 20:20 ENVA 232020Z 15013G25KT 110V260 CAVOK 06/M04 Q1021 RMK WIND 670FT 17027G42KT
ENGM - Oslo
Actualización: 23/10/2017 22:20
Muy nuboso
Muy nuboso
 Viento del varies
Viento: varies 4 km/h
Temperatura: 3°C
Rocío: -3°C
Humedad: 65%
Barómetro: 1025 hPa
Clouds: Muy nuboso
Visibility: 10 km
2017/10/23 20:20 ENGM 232020Z VRB02KT 9999 BKN048 03/M03 Q1025 NOSIG